sensor_id;sensor_type;location;lat;lon;timestamp;pressure;altitude;pressure_sealevel;temperature;humidity
74524;BME280;63074;44.696;10.358;2023-04-09T00:01:15;100284.75;;;10.07;100.00
74524;BME280;63074;44.696;10.358;2023-04-09T00:03:41;100280.06;;;10.21;100.00
74524;BME280;63074;44.696;10.358;2023-04-09T00:06:07;100280.78;;;10.28;100.00
74524;BME280;63074;44.696;10.358;2023-04-09T00:08:33;100280.25;;;10.37;100.00
74524;BME280;63074;44.696;10.358;2023-04-09T00:11:00;100285.88;;;10.47;100.00
74524;BME280;63074;44.696;10.358;2023-04-09T00:13:26;100289.28;;;10.55;100.00
74524;BME280;63074;44.696;10.358;2023-04-09T00:15:52;100283.31;;;10.53;100.00
74524;BME280;63074;44.696;10.358;2023-04-09T00:18:18;100288.78;;;10.46;100.00
74524;BME280;63074;44.696;10.358;2023-04-09T00:20:45;100288.91;;;10.39;100.00
74524;BME280;63074;44.696;10.358;2023-04-09T00:23:11;100287.50;;;10.48;100.00
74524;BME280;63074;44.696;10.358;2023-04-09T00:25:37;100283.78;;;10.49;100.00
74524;BME280;63074;44.696;10.358;2023-04-09T00:28:03;100283.81;;;10.61;100.00
74524;BME280;63074;44.696;10.358;2023-04-09T00:30:30;100287.69;;;10.65;100.00
74524;BME280;63074;44.696;10.358;2023-04-09T00:32:57;100285.31;;;10.57;100.00
74524;BME280;63074;44.696;10.358;2023-04-09T00:35:23;100291.19;;;10.66;100.00
74524;BME280;63074;44.696;10.358;2023-04-09T00:37:50;100285.69;;;10.61;100.00
74524;BME280;63074;44.696;10.358;2023-04-09T00:40:16;100288.84;;;10.58;100.00
74524;BME280;63074;44.696;10.358;2023-04-09T00:42:42;100289.97;;;10.50;100.00
74524;BME280;63074;44.696;10.358;2023-04-09T00:45:08;100290.44;;;10.47;100.00
74524;BME280;63074;44.696;10.358;2023-04-09T00:47:35;100290.44;;;10.47;100.00
74524;BME280;63074;44.696;10.358;2023-04-09T00:50:02;100292.75;;;10.43;100.00
74524;BME280;63074;44.696;10.358;2023-04-09T00:52:29;100295.44;;;10.43;100.00
74524;BME280;63074;44.696;10.358;2023-04-09T00:54:58;100298.03;;;10.50;100.00
74524;BME280;63074;44.696;10.358;2023-04-09T00:57:24;100290.25;;;10.30;100.00
74524;BME280;63074;44.696;10.358;2023-04-09T00:59:50;100296.09;;;10.27;100.00
74524;BME280;63074;44.696;10.358;2023-04-09T01:02:17;100302.13;;;10.23;100.00
74524;BME280;63074;44.696;10.358;2023-04-09T01:04:43;100311.38;;;10.27;100.00
74524;BME280;63074;44.696;10.358;2023-04-09T01:10:25;100297.63;;;10.35;100.00
74524;BME280;63074;44.696;10.358;2023-04-09T01:13:22;100295.66;;;10.42;100.00
74524;BME280;63074;44.696;10.358;2023-04-09T01:15:58;100297.41;;;10.36;100.00
74524;BME280;63074;44.696;10.358;2023-04-09T01:18:54;100303.69;;;10.30;100.00
74524;BME280;63074;44.696;10.358;2023-04-09T01:21:26;100306.88;;;10.39;100.00
74524;BME280;63074;44.696;10.358;2023-04-09T01:26:58;100300.41;;;10.28;100.00
74524;BME280;63074;44.696;10.358;2023-04-09T01:29:32;100302.94;;;10.23;100.00
74524;BME280;63074;44.696;10.358;2023-04-09T01:32:03;100293.06;;;10.17;100.00
74524;BME280;63074;44.696;10.358;2023-04-09T01:34:31;100302.28;;;10.09;100.00
74524;BME280;63074;44.696;10.358;2023-04-09T01:36:59;100301.25;;;10.10;100.00
74524;BME280;63074;44.696;10.358;2023-04-09T01:39:27;100307.13;;;10.01;100.00
74524;BME280;63074;44.696;10.358;2023-04-09T01:41:55;100310.78;;;10.06;100.00
74524;BME280;63074;44.696;10.358;2023-04-09T01:44:23;100313.56;;;9.81;100.00
74524;BME280;63074;44.696;10.358;2023-04-09T01:46:51;100315.72;;;9.30;100.00
74524;BME280;63074;44.696;10.358;2023-04-09T01:49:18;100315.47;;;9.56;100.00
74524;BME280;63074;44.696;10.358;2023-04-09T01:51:44;100310.25;;;9.43;100.00
74524;BME280;63074;44.696;10.358;2023-04-09T01:54:10;100311.91;;;9.44;100.00
74524;BME280;63074;44.696;10.358;2023-04-09T01:56:41;100316.97;;;9.52;100.00
74524;BME280;63074;44.696;10.358;2023-04-09T01:59:08;100316.72;;;9.54;100.00
74524;BME280;63074;44.696;10.358;2023-04-09T02:01:44;100316.72;;;9.54;100.00
74524;BME280;63074;44.696;10.358;2023-04-09T02:04:20;100313.69;;;9.50;100.00
74524;BME280;63074;44.696;10.358;2023-04-09T02:06:52;100316.16;;;9.52;100.00
74524;BME280;63074;44.696;10.358;2023-04-09T02:09:21;100310.53;;;9.35;100.00
74524;BME280;63074;44.696;10.358;2023-04-09T02:11:50;100316.13;;;9.33;100.00
74524;BME280;63074;44.696;10.358;2023-04-09T02:14:18;100320.00;;;9.37;100.00
74524;BME280;63074;44.696;10.358;2023-04-09T02:16:45;100314.53;;;9.26;100.00
74524;BME280;63074;44.696;10.358;2023-04-09T02:19:11;100322.56;;;9.26;100.00
74524;BME280;63074;44.696;10.358;2023-04-09T02:21:38;100310.38;;;9.30;100.00
74524;BME280;63074;44.696;10.358;2023-04-09T02:24:04;100309.72;;;9.34;100.00
74524;BME280;63074;44.696;10.358;2023-04-09T02:26:30;100314.69;;;9.31;100.00
74524;BME280;63074;44.696;10.358;2023-04-09T02:28:56;100312.88;;;9.25;100.00
74524;BME280;63074;44.696;10.358;2023-04-09T02:31:23;100311.31;;;9.17;100.00
74524;BME280;63074;44.696;10.358;2023-04-09T02:33:50;100314.31;;;9.27;100.00
74524;BME280;63074;44.696;10.358;2023-04-09T02:36:16;100313.78;;;9.19;100.00
74524;BME280;63074;44.696;10.358;2023-04-09T02:38:43;100310.13;;;9.13;100.00
74524;BME280;63074;44.696;10.358;2023-04-09T02:41:09;100311.50;;;9.22;100.00
74524;BME280;63074;44.696;10.358;2023-04-09T02:43:36;100318.16;;;9.13;100.00
74524;BME280;63074;44.696;10.358;2023-04-09T02:46:02;100316.09;;;8.90;100.00
74524;BME280;63074;44.696;10.358;2023-04-09T02:48:28;100318.47;;;8.98;100.00
74524;BME280;63074;44.696;10.358;2023-04-09T02:50:55;100304.81;;;9.06;100.00
74524;BME280;63074;44.696;10.358;2023-04-09T02:53:21;100312.06;;;8.99;100.00
74524;BME280;63074;44.696;10.358;2023-04-09T02:55:48;100303.16;;;8.80;100.00
74524;BME280;63074;44.696;10.358;2023-04-09T02:58:14;100305.47;;;9.02;100.00
74524;BME280;63074;44.696;10.358;2023-04-09T03:00:40;100313.44;;;9.08;100.00
74524;BME280;63074;44.696;10.358;2023-04-09T03:03:06;100305.81;;;8.87;100.00
74524;BME280;63074;44.696;10.358;2023-04-09T03:05:32;100315.31;;;9.08;100.00
74524;BME280;63074;44.696;10.358;2023-04-09T03:08:00;100312.16;;;9.18;100.00
74524;BME280;63074;44.696;10.358;2023-04-09T03:10:26;100310.97;;;9.32;100.00
74524;BME280;63074;44.696;10.358;2023-04-09T03:12:54;100309.72;;;9.34;100.00
74524;BME280;63074;44.696;10.358;2023-04-09T03:15:21;100316.16;;;9.27;100.00
74524;BME280;63074;44.696;10.358;2023-04-09T03:17:47;100318.63;;;9.28;100.00
74524;BME280;63074;44.696;10.358;2023-04-09T03:20:13;100314.47;;;9.32;100.00
74524;BME280;63074;44.696;10.358;2023-04-09T03:22:39;100315.66;;;9.18;100.00
74524;BME280;63074;44.696;10.358;2023-04-09T03:25:06;100317.44;;;9.24;100.00
74524;BME280;63074;44.696;10.358;2023-04-09T03:27:32;100321.44;;;9.15;100.00
74524;BME280;63074;44.696;10.358;2023-04-09T03:29:58;100315.34;;;9.26;100.00
74524;BME280;63074;44.696;10.358;2023-04-09T03:32:24;100315.91;;;9.35;100.00
74524;BME280;63074;44.696;10.358;2023-04-09T03:34:51;100323.88;;;9.23;100.00
74524;BME280;63074;44.696;10.358;2023-04-09T03:37:17;100323.63;;;9.25;100.00
74524;BME280;63074;44.696;10.358;2023-04-09T03:39:43;100313.50;;;9.27;100.00
74524;BME280;63074;44.696;10.358;2023-04-09T03:42:09;100318.63;;;9.28;100.00
74524;BME280;63074;44.696;10.358;2023-04-09T03:44:36;100320.41;;;9.16;100.00
74524;BME280;63074;44.696;10.358;2023-04-09T03:47:02;100319.97;;;9.19;100.00
74524;BME280;63074;44.696;10.358;2023-04-09T03:49:28;100316.25;;;9.20;100.00
74524;BME280;63074;44.696;10.358;2023-04-09T03:51:54;100318.53;;;9.17;100.00
74524;BME280;63074;44.696;10.358;2023-04-09T03:54:20;100316.75;;;9.10;100.00
74524;BME280;63074;44.696;10.358;2023-04-09T03:56:47;100315.25;;;9.14;100.00
74524;BME280;63074;44.696;10.358;2023-04-09T03:59:13;100320.41;;;8.91;100.00
74524;BME280;63074;44.696;10.358;2023-04-09T04:01:39;100306.41;;;8.58;100.00
74524;BME280;63074;44.696;10.358;2023-04-09T04:04:05;100310.13;;;8.57;100.00
74524;BME280;63074;44.696;10.358;2023-04-09T04:06:33;100320.34;;;8.66;100.00
74524;BME280;63074;44.696;10.358;2023-04-09T04:09:00;100324.69;;;8.29;100.00
74524;BME280;63074;44.696;10.358;2023-04-09T04:11:26;100329.38;;;8.40;100.00
74524;BME280;63074;44.696;10.358;2023-04-09T04:13:52;100320.78;;;8.25;100.00
74524;BME280;63074;44.696;10.358;2023-04-09T04:16:20;100329.44;;;8.34;100.00
74524;BME280;63074;44.696;10.358;2023-04-09T04:18:46;100328.81;;;8.25;100.00
74524;BME280;63074;44.696;10.358;2023-04-09T04:21:14;100329.22;;;8.29;100.00
74524;BME280;63074;44.696;10.358;2023-04-09T04:23:40;100332.63;;;8.49;100.00
74524;BME280;63074;44.696;10.358;2023-04-09T04:26:07;100336.97;;;8.43;100.00
74524;BME280;63074;44.696;10.358;2023-04-09T04:28:37;100332.88;;;8.41;100.00
74524;BME280;63074;44.696;10.358;2023-04-09T04:31:08;100341.13;;;8.39;100.00
74524;BME280;63074;44.696;10.358;2023-04-09T04:33:36;100341.09;;;8.46;100.00
74524;BME280;63074;44.696;10.358;2023-04-09T04:36:09;100338.44;;;8.39;100.00
74524;BME280;63074;44.696;10.358;2023-04-09T04:38:36;100342.75;;;8.40;100.00
74524;BME280;63074;44.696;10.358;2023-04-09T04:41:03;100344.00;;;8.38;100.00
74524;BME280;63074;44.696;10.358;2023-04-09T04:43:29;100346.31;;;7.63;100.00
74524;BME280;63074;44.696;10.358;2023-04-09T04:45:56;100361.94;;;6.61;100.00
74524;BME280;63074;44.696;10.358;2023-04-09T04:48:22;100359.50;;;7.38;100.00
74524;BME280;63074;44.696;10.358;2023-04-09T04:50:55;100353.66;;;7.88;100.00
74524;BME280;63074;44.696;10.358;2023-04-09T04:53:22;100357.44;;;7.01;100.00
74524;BME280;63074;44.696;10.358;2023-04-09T04:55:48;100374.84;;;6.51;100.00
74524;BME280;63074;44.696;10.358;2023-04-09T04:58:14;100372.88;;;6.18;100.00
74524;BME280;63074;44.696;10.358;2023-04-09T05:00:40;100383.59;;;6.31;100.00
74524;BME280;63074;44.696;10.358;2023-04-09T05:03:06;100375.75;;;6.97;100.00
74524;BME280;63074;44.696;10.358;2023-04-09T05:05:32;100369.81;;;7.41;100.00
74524;BME280;63074;44.696;10.358;2023-04-09T05:07:59;100371.66;;;7.48;100.00
74524;BME280;63074;44.696;10.358;2023-04-09T05:10:25;100370.63;;;7.49;100.00
74524;BME280;63074;44.696;10.358;2023-04-09T05:12:51;100386.25;;;7.38;100.00
74524;BME280;63074;44.696;10.358;2023-04-09T05:15:17;100381.91;;;7.57;100.00
74524;BME280;63074;44.696;10.358;2023-04-09T05:17:44;100388.84;;;7.85;100.00
74524;BME280;63074;44.696;10.358;2023-04-09T05:20:11;100391.38;;;7.79;100.00
74524;BME280;63074;44.696;10.358;2023-04-09T05:22:37;100375.31;;;7.79;100.00
74524;BME280;63074;44.696;10.358;2023-04-09T05:25:03;100380.53;;;8.12;100.00
74524;BME280;63074;44.696;10.358;2023-04-09T05:27:30;100382.78;;;8.35;100.00
74524;BME280;63074;44.696;10.358;2023-04-09T05:29:56;100384.84;;;8.20;100.00
74524;BME280;63074;44.696;10.358;2023-04-09T05:32:22;100379.97;;;8.04;100.00
74524;BME280;63074;44.696;10.358;2023-04-09T05:34:48;100379.78;;;7.99;100.00
74524;BME280;63074;44.696;10.358;2023-04-09T05:37:14;100382.44;;;8.05;100.00
74524;BME280;63074;44.696;10.358;2023-04-09T05:39:41;100384.63;;;8.28;100.00
74524;BME280;63074;44.696;10.358;2023-04-09T05:42:07;100389.16;;;8.21;100.00
74524;BME280;63074;44.696;10.358;2023-04-09T05:44:33;100391.31;;;7.99;100.00
74524;BME280;63074;44.696;10.358;2023-04-09T05:46:59;100392.31;;;8.05;100.00
74524;BME280;63074;44.696;10.358;2023-04-09T05:49:25;100394.81;;;8.00;100.00
74524;BME280;63074;44.696;10.358;2023-04-09T05:51:51;100394.94;;;8.18;100.00
74524;BME280;63074;44.696;10.358;2023-04-09T05:54:18;100401.41;;;7.97;100.00
74524;BME280;63074;44.696;10.358;2023-04-09T05:56:45;100409.97;;;8.12;100.00
74524;BME280;63074;44.696;10.358;2023-04-09T05:59:12;100406.47;;;8.25;100.00
74524;BME280;63074;44.696;10.358;2023-04-09T06:01:39;100408.72;;;8.35;100.00
74524;BME280;63074;44.696;10.358;2023-04-09T06:04:05;100405.38;;;8.46;100.00
74524;BME280;63074;44.696;10.358;2023-04-09T06:06:31;100409.50;;;8.42;100.00
74524;BME280;63074;44.696;10.358;2023-04-09T06:08:57;100418.34;;;8.49;100.00
74524;BME280;63074;44.696;10.358;2023-04-09T06:11:24;100421.00;;;8.56;100.00
74524;BME280;63074;44.696;10.358;2023-04-09T06:13:51;100428.81;;;8.57;100.00
74524;BME280;63074;44.696;10.358;2023-04-09T06:16:17;100436.03;;;8.57;100.00
74524;BME280;63074;44.696;10.358;2023-04-09T06:18:43;100429.41;;;8.66;100.00
74524;BME280;63074;44.696;10.358;2023-04-09T06:21:11;100424.41;;;8.69;100.00
74524;BME280;63074;44.696;10.358;2023-04-09T06:23:38;100423.44;;;8.64;100.00
74524;BME280;63074;44.696;10.358;2023-04-09T06:26:05;100429.16;;;8.67;100.00
74524;BME280;63074;44.696;10.358;2023-04-09T06:28:32;100432.78;;;8.86;100.00
74524;BME280;63074;44.696;10.358;2023-04-09T06:33:48;100449.78;;;8.67;100.00
74524;BME280;63074;44.696;10.358;2023-04-09T06:36:14;100455.63;;;8.51;100.00
74524;BME280;63074;44.696;10.358;2023-04-09T06:38:40;100448.69;;;8.81;100.00
74524;BME280;63074;44.696;10.358;2023-04-09T06:41:06;100452.97;;;8.89;100.00
74524;BME280;63074;44.696;10.358;2023-04-09T06:43:33;100443.13;;;9.14;100.00
74524;BME280;63074;44.696;10.358;2023-04-09T06:46:01;100448.97;;;9.04;100.00
74524;BME280;63074;44.696;10.358;2023-04-09T06:48:27;100439.69;;;9.32;100.00
74524;BME280;63074;44.696;10.358;2023-04-09T06:50:54;100441.09;;;9.41;100.00
74524;BME280;63074;44.696;10.358;2023-04-09T06:53:20;100436.88;;;9.52;100.00
74524;BME280;63074;44.696;10.358;2023-04-09T06:55:46;100443.72;;;9.47;100.00
74524;BME280;63074;44.696;10.358;2023-04-09T06:58:12;100448.19;;;9.54;100.00
74524;BME280;63074;44.696;10.358;2023-04-09T07:00:39;100444.31;;;9.50;100.00
74524;BME280;63074;44.696;10.358;2023-04-09T07:03:05;100445.69;;;9.59;100.00
74524;BME280;63074;44.696;10.358;2023-04-09T07:05:33;100440.00;;;9.73;100.00
74524;BME280;63074;44.696;10.358;2023-04-09T07:08:00;100430.97;;;9.86;100.00
74524;BME280;63074;44.696;10.358;2023-04-09T07:10:27;100438.97;;;9.93;100.00
74524;BME280;63074;44.696;10.358;2023-04-09T07:12:53;100439.28;;;10.03;100.00
74524;BME280;63074;44.696;10.358;2023-04-09T07:15:19;100435.03;;;10.13;100.00
74524;BME280;63074;44.696;10.358;2023-04-09T07:17:45;100433.72;;;10.23;100.00
74524;BME280;63074;44.696;10.358;2023-04-09T07:20:11;100436.94;;;10.31;100.00
74524;BME280;63074;44.696;10.358;2023-04-09T07:22:38;100429.38;;;10.40;100.00
74524;BME280;63074;44.696;10.358;2023-04-09T07:25:04;100434.63;;;10.53;100.00
74524;BME280;63074;44.696;10.358;2023-04-09T07:27:30;100429.31;;;10.46;100.00
74524;BME280;63074;44.696;10.358;2023-04-09T07:29:58;100439.69;;;10.61;100.00
74524;BME280;63074;44.696;10.358;2023-04-09T07:41:52;100450.19;;;10.81;100.00
74524;BME280;63074;44.696;10.358;2023-04-09T07:44:18;100451.59;;;10.83;100.00
74524;BME280;63074;44.696;10.358;2023-04-09T07:46:45;100454.91;;;10.97;100.00
74524;BME280;63074;44.696;10.358;2023-04-09T07:49:11;100445.53;;;10.88;100.00
74524;BME280;63074;44.696;10.358;2023-04-09T07:51:37;100456.06;;;10.90;100.00
74524;BME280;63074;44.696;10.358;2023-04-09T07:54:03;100454.00;;;11.03;100.00
74524;BME280;63074;44.696;10.358;2023-04-09T07:56:30;100450.25;;;11.04;100.00
74524;BME280;63074;44.696;10.358;2023-04-09T07:58:56;100454.88;;;11.15;100.00
74524;BME280;63074;44.696;10.358;2023-04-09T08:01:22;100453.22;;;11.14;100.00
74524;BME280;63074;44.696;10.358;2023-04-09T08:03:49;100457.69;;;11.21;100.00
74524;BME280;63074;44.696;10.358;2023-04-09T08:06:16;100456.28;;;11.18;100.00
74524;BME280;63074;44.696;10.358;2023-04-09T08:08:43;100462.13;;;11.27;100.00
74524;BME280;63074;44.696;10.358;2023-04-09T08:11:09;100457.06;;;11.48;100.00
74524;BME280;63074;44.696;10.358;2023-04-09T08:13:35;100458.25;;;11.64;100.00
74524;BME280;63074;44.696;10.358;2023-04-09T08:16:01;100459.06;;;11.53;100.00
74524;BME280;63074;44.696;10.358;2023-04-09T08:18:28;100457.19;;;11.65;100.00
74524;BME280;63074;44.696;10.358;2023-04-09T08:20:55;100459.75;;;11.60;100.00
74524;BME280;63074;44.696;10.358;2023-04-09T08:23:22;100466.19;;;11.59;100.00
74524;BME280;63074;44.696;10.358;2023-04-09T08:25:48;100469.50;;;11.73;100.00
74524;BME280;63074;44.696;10.358;2023-04-09T08:28:14;100464.41;;;11.83;100.00
74524;BME280;63074;44.696;10.358;2023-04-09T08:30:40;100467.41;;;11.87;100.00
74524;BME280;63074;44.696;10.358;2023-04-09T08:33:06;100471.06;;;11.80;100.00
74524;BME280;63074;44.696;10.358;2023-04-09T08:35:33;100472.34;;;11.90;100.00
74524;BME280;63074;44.696;10.358;2023-04-09T08:37:59;100469.31;;;11.98;100.00
74524;BME280;63074;44.696;10.358;2023-04-09T08:40:25;100465.44;;;12.05;100.00
74524;BME280;63074;44.696;10.358;2023-04-09T08:42:55;100464.50;;;12.11;100.00
74524;BME280;63074;44.696;10.358;2023-04-09T08:45:22;100466.72;;;12.26;100.00
74524;BME280;63074;44.696;10.358;2023-04-09T08:47:50;100461.06;;;12.39;100.00
74524;BME280;63074;44.696;10.358;2023-04-09T08:50:17;100472.34;;;12.36;100.00
74524;BME280;63074;44.696;10.358;2023-04-09T08:58:31;100462.72;;;12.40;100.00
74524;BME280;63074;44.696;10.358;2023-04-09T09:00:57;100466.13;;;12.36;100.00
74524;BME280;63074;44.696;10.358;2023-04-09T09:03:23;100468.16;;;12.69;100.00
74524;BME280;63074;44.696;10.358;2023-04-09T09:05:50;100468.41;;;12.67;100.00
74524;BME280;63074;44.696;10.358;2023-04-09T09:08:23;100468.56;;;12.89;100.00
74524;BME280;63074;44.696;10.358;2023-04-09T09:10:50;100465.38;;;12.92;100.00
74524;BME280;63074;44.696;10.358;2023-04-09T09:13:25;100460.91;;;12.98;100.00
74524;BME280;63074;44.696;10.358;2023-04-09T09:15:54;100471.38;;;12.82;100.00
74524;BME280;63074;44.696;10.358;2023-04-09T09:18:50;100467.53;;;13.18;100.00
74524;BME280;63074;44.696;10.358;2023-04-09T09:21:17;100468.00;;;13.32;100.00
74524;BME280;63074;44.696;10.358;2023-04-09T09:23:45;100470.66;;;13.27;100.00
74524;BME280;63074;44.696;10.358;2023-04-09T09:26:20;100472.53;;;13.27;100.00
74524;BME280;63074;44.696;10.358;2023-04-09T09:28:48;100480.25;;;13.51;100.00
74524;BME280;63074;44.696;10.358;2023-04-09T09:31:16;100465.03;;;13.79;100.00
74524;BME280;63074;44.696;10.358;2023-04-09T09:33:42;100470.00;;;13.70;100.00
74524;BME280;63074;44.696;10.358;2023-04-09T09:36:09;100468.34;;;13.86;100.00
74524;BME280;63074;44.696;10.358;2023-04-09T09:38:52;100459.63;;;13.79;100.00
74524;BME280;63074;44.696;10.358;2023-04-09T09:41:19;100459.94;;;13.99;100.00
74524;BME280;63074;44.696;10.358;2023-04-09T09:43:46;100470.75;;;13.99;100.00
74524;BME280;63074;44.696;10.358;2023-04-09T09:46:13;100466.31;;;14.10;100.00
74524;BME280;63074;44.696;10.358;2023-04-09T09:48:40;100468.63;;;14.40;100.00
74524;BME280;63074;44.696;10.358;2023-04-09T09:51:10;100469.44;;;14.40;99.10
74524;BME280;63074;44.696;10.358;2023-04-09T09:53:37;100472.84;;;14.52;92.46
74524;BME280;63074;44.696;10.358;2023-04-09T09:56:14;100466.19;;;14.60;98.41
74524;BME280;63074;44.696;10.358;2023-04-09T09:59:29;100470.78;;;14.60;100.00
74524;BME280;63074;44.696;10.358;2023-04-09T10:01:49;100467.69;;;14.95;98.57
74524;BME280;63074;44.696;10.358;2023-04-09T10:04:18;100466.56;;;15.17;95.62
74524;BME280;63074;44.696;10.358;2023-04-09T10:06:45;100466.25;;;15.14;87.76
74524;BME280;63074;44.696;10.358;2023-04-09T10:09:12;100461.34;;;15.11;89.12
74524;BME280;63074;44.696;10.358;2023-04-09T10:11:39;100466.56;;;15.17;87.96
74524;BME280;63074;44.696;10.358;2023-04-09T10:14:09;100463.44;;;15.04;82.37
74524;BME280;63074;44.696;10.358;2023-04-09T10:16:36;100448.88;;;15.10;81.88
74524;BME280;63074;44.696;10.358;2023-04-09T10:19:02;100453.00;;;15.44;81.43
74524;BME280;63074;44.696;10.358;2023-04-09T10:24:21;100453.81;;;16.09;77.01
74524;BME280;63074;44.696;10.358;2023-04-09T10:26:48;100448.69;;;16.17;77.82
74524;BME280;63074;44.696;10.358;2023-04-09T10:29:15;100445.53;;;16.36;76.90
74524;BME280;63074;44.696;10.358;2023-04-09T10:32:08;100448.56;;;16.44;73.63
74524;BME280;63074;44.696;10.358;2023-04-09T10:34:39;100440.09;;;16.31;75.20
74524;BME280;63074;44.696;10.358;2023-04-09T10:37:13;100444.88;;;15.71;81.41
74524;BME280;63074;44.696;10.358;2023-04-09T10:39:44;100440.59;;;15.80;82.02
74524;BME280;63074;44.696;10.358;2023-04-09T10:42:17;100440.34;;;16.29;75.80
74524;BME280;63074;44.696;10.358;2023-04-09T10:44:44;100448.03;;;16.47;72.94
74524;BME280;63074;44.696;10.358;2023-04-09T10:47:11;100442.56;;;16.37;74.07
74524;BME280;63074;44.696;10.358;2023-04-09T10:49:56;100437.16;;;16.37;76.10
74524;BME280;63074;44.696;10.358;2023-04-09T10:52:29;100438.28;;;16.51;80.09
74524;BME280;63074;44.696;10.358;2023-04-09T10:54:55;100436.09;;;16.43;78.10
74524;BME280;63074;44.696;10.358;2023-04-09T10:57:22;100435.53;;;16.46;76.69
74524;BME280;63074;44.696;10.358;2023-04-09T10:59:55;100437.34;;;16.88;74.36
74524;BME280;63074;44.696;10.358;2023-04-09T11:05:05;100436.28;;;16.89;73.22
74524;BME280;63074;44.696;10.358;2023-04-09T11:07:46;100429.56;;;17.58;72.88
74524;BME280;63074;44.696;10.358;2023-04-09T11:10:12;100429.00;;;17.45;73.75
74524;BME280;63074;44.696;10.358;2023-04-09T11:12:38;100433.63;;;17.35;74.41
74524;BME280;63074;44.696;10.358;2023-04-09T11:15:05;100425.75;;;17.38;73.65
74524;BME280;63074;44.696;10.358;2023-04-09T11:17:35;100419.56;;;16.50;76.48
74524;BME280;63074;44.696;10.358;2023-04-09T11:20:03;100420.75;;;16.17;77.31
74524;BME280;63074;44.696;10.358;2023-04-09T11:22:29;100425.53;;;15.58;75.43
74524;BME280;63074;44.696;10.358;2023-04-09T11:24:55;100422.47;;;15.81;72.27
74524;BME280;63074;44.696;10.358;2023-04-09T11:27:21;100419.56;;;16.50;74.38
74524;BME280;63074;44.696;10.358;2023-04-09T11:29:47;100415.75;;;16.46;70.11
74524;BME280;63074;44.696;10.358;2023-04-09T11:32:13;100424.34;;;17.05;70.08
74524;BME280;63074;44.696;10.358;2023-04-09T11:34:40;100420.00;;;17.04;69.51
74524;BME280;63074;44.696;10.358;2023-04-09T11:37:06;100420.59;;;17.72;72.83
74524;BME280;63074;44.696;10.358;2023-04-09T11:39:37;100411.63;;;17.87;68.90
74524;BME280;63074;44.696;10.358;2023-04-09T11:42:03;100415.72;;;17.69;70.02
74524;BME280;63074;44.696;10.358;2023-04-09T11:44:29;100411.75;;;18.41;68.17
74524;BME280;63074;44.696;10.358;2023-04-09T11:46:57;100413.81;;;17.60;67.38
74524;BME280;63074;44.696;10.358;2023-04-09T11:49:23;100412.59;;;18.27;66.79
74524;BME280;63074;44.696;10.358;2023-04-09T11:51:50;100419.91;;;18.36;64.97
74524;BME280;63074;44.696;10.358;2023-04-09T11:54:16;100404.31;;;17.72;64.70
74524;BME280;63074;44.696;10.358;2023-04-09T11:56:43;100410.91;;;18.46;64.74
74524;BME280;63074;44.696;10.358;2023-04-09T11:59:12;100414.25;;;18.87;62.74
74524;BME280;63074;44.696;10.358;2023-04-09T12:01:39;100415.75;;;19.08;62.18
74524;BME280;63074;44.696;10.358;2023-04-09T12:04:05;100404.09;;;19.37;63.11
74524;BME280;63074;44.696;10.358;2023-04-09T12:06:32;100403.19;;;19.80;62.15
74524;BME280;63074;44.696;10.358;2023-04-09T12:09:05;100401.00;;;20.06;60.72
74524;BME280;63074;44.696;10.358;2023-04-09T12:11:36;100404.34;;;19.40;59.91
74524;BME280;63074;44.696;10.358;2023-04-09T12:14:06;100401.53;;;19.16;58.93
74524;BME280;63074;44.696;10.358;2023-04-09T12:16:37;100395.69;;;20.20;58.01
74524;BME280;63074;44.696;10.358;2023-04-09T12:19:07;100393.34;;;20.32;55.94
74524;BME280;63074;44.696;10.358;2023-04-09T12:21:53;100390.06;;;20.78;57.03
74524;BME280;63074;44.696;10.358;2023-04-09T12:24:25;100392.94;;;21.05;57.74
74524;BME280;63074;44.696;10.358;2023-04-09T12:26:53;100395.34;;;20.69;54.99
74524;BME280;63074;44.696;10.358;2023-04-09T12:29:19;100390.09;;;21.10;54.12
74524;BME280;63074;44.696;10.358;2023-04-09T12:31:46;100384.97;;;19.76;55.80
74524;BME280;63074;44.696;10.358;2023-04-09T12:34:12;100393.25;;;20.42;55.14
74524;BME280;63074;44.696;10.358;2023-04-09T12:36:39;100383.47;;;20.36;54.66
74524;BME280;63074;44.696;10.358;2023-04-09T12:39:08;100386.03;;;21.08;54.91
74524;BME280;63074;44.696;10.358;2023-04-09T12:41:35;100381.31;;;20.57;52.77
74524;BME280;63074;44.696;10.358;2023-04-09T12:44:01;100388.88;;;21.21;51.76
74524;BME280;63074;44.696;10.358;2023-04-09T12:46:27;100383.69;;;21.01;52.53
74524;BME280;63074;44.696;10.358;2023-04-09T12:48:54;100386.19;;;20.36;55.06
74524;BME280;63074;44.696;10.358;2023-04-09T12:51:20;100378.03;;;20.79;52.07
74524;BME280;63074;44.696;10.358;2023-04-09T12:53:46;100381.22;;;21.37;52.36
74524;BME280;63074;44.696;10.358;2023-04-09T12:56:13;100382.81;;;21.71;49.99
74524;BME280;63074;44.696;10.358;2023-04-09T12:58:39;100384.34;;;22.23;51.02
74524;BME280;63074;44.696;10.358;2023-04-09T13:01:05;100375.59;;;22.98;49.06
74524;BME280;63074;44.696;10.358;2023-04-09T13:03:32;100374.34;;;23.27;48.14
74524;BME280;63074;44.696;10.358;2023-04-09T13:05:58;100366.75;;;23.01;48.03
74524;BME280;63074;44.696;10.358;2023-04-09T13:08:24;100377.16;;;23.13;47.69
74524;BME280;63074;44.696;10.358;2023-04-09T13:10:50;100363.31;;;23.40;47.80